Time;durP1;ratioP1;P1;durP2;ratioP2;P2;SDS_P1;SDS_P2;PMS_P1;PMS_P2;Temp;Humidity;BMP_temperature;BMP_pressure;BME280_temperature;BME280_humidity;BME280_pressure;Samples;Min_cycle;Max_cycle;Signal;HPM_P1;HPM_P2
2023/08/21 00:02:20;;;;;;;;;;;;;;;28.35;100.00;100105.53;5016122;28;20358;-73
2023/08/21 00:04:45;;;;;;;;;;;;;;;28.35;100.00;100107.44;5015059;28;20393;-74
2023/08/21 00:07:11;;;;;;;;;;;;;;;28.38;100.00;100098.81;5015158;28;19921;-74
2023/08/21 00:09:37;;;;;;;;;;;;;;;28.34;100.00;100103.91;5014869;28;19922;-73
2023/08/21 00:12:02;;;;;;;;;;;;;;;28.31;100.00;100100.84;5015114;28;19929;-74
2023/08/21 00:14:27;;;;;;;;;;;;;;;28.24;100.00;100097.47;5014637;28;19929;-74
2023/08/21 00:16:53;;;;;;;;;;;;;;;28.19;100.00;100094.69;5015045;28;19985;-74
2023/08/21 00:19:18;;;;;;;;;;;;;;;28.18;100.00;100098.44;5015030;28;19944;-74
2023/08/21 00:21:43;;;;;;;;;;;;;;;28.19;100.00;100097.38;4997076;28;20279;-74
2023/08/21 00:24:09;;;;;;;;;;;;;;;28.23;100.00;100099.38;5014760;28;20286;-74
2023/08/21 00:26:34;;;;;;;;;;;;;;;28.22;100.00;100099.59;5014355;28;19918;-73
2023/08/21 00:28:59;;;;;;;;;;;;;;;28.24;100.00;100102.91;4997059;28;19925;-72
2023/08/21 00:31:25;;;;;;;;;;;;;;;28.19;100.00;100100.09;4997147;28;19925;-72
2023/08/21 00:33:50;;;;;;;;;;;;;;;28.20;100.00;100101.75;4996778;28;19921;-73
2023/08/21 00:36:16;;;;;;;;;;;;;;;28.21;100.00;100097.97;5014852;28;20382;-74
2023/08/21 00:38:41;;;;;;;;;;;;;;;28.20;100.00;100099.88;5014391;28;19961;-73
2023/08/21 00:41:06;;;;;;;;;;;;;;;28.17;100.00;100102.22;5014369;28;20019;-73
2023/08/21 00:43:32;;;;;;;;;;;;;;;28.15;100.00;100099.78;5014569;28;19925;-73
2023/08/21 00:45:57;;;;;;;;;;;;;;;28.21;100.00;100103.41;5014422;28;20394;-73
2023/08/21 00:48:22;;;;;;;;;;;;;;;28.23;100.00;100107.50;4996925;28;19961;-73
2023/08/21 00:50:48;;;;;;;;;;;;;;;28.19;100.00;100100.09;5013988;28;20015;-73
2023/08/21 00:53:13;;;;;;;;;;;;;;;28.16;100.00;100100.59;4996722;28;19928;-73
2023/08/21 00:55:40;;;;;;;;;;;;;;;28.02;100.00;100106.31;5013690;28;19921;-73
2023/08/21 00:58:05;;;;;;;;;;;;;;;27.92;100.00;100105.28;5012486;28;20652;-72
2023/08/21 01:00:31;;;;;;;;;;;;;;;27.84;100.00;100109.22;4993418;28;19926;-73
2023/08/21 01:02:56;;;;;;;;;;;;;;;27.76;100.00;100106.03;4994019;28;20239;-72
2023/08/21 01:05:22;;;;;;;;;;;;;;;27.73;100.00;100107.38;5013648;28;19927;-73
2023/08/21 01:08:00;;;;;;;;;;;;;;;27.80;100.00;100113.47;5014158;28;20361;-74
2023/08/21 01:10:33;;;;;;;;;;;;;;;27.79;100.00;100116.41;5010674;28;19957;-73
2023/08/21 01:13:09;;;;;;;;;;;;;;;27.82;100.00;100119.47;5014171;28;20016;-73
2023/08/21 01:15:38;;;;;;;;;;;;;;;27.81;100.00;100125.94;5013803;28;20008;-73
2023/08/21 01:18:04;;;;;;;;;;;;;;;27.74;100.00;100114.44;5014014;28;19976;-73
2023/08/21 01:20:29;;;;;;;;;;;;;;;27.69;100.00;100114.31;4996041;28;20334;-73
2023/08/21 01:22:54;;;;;;;;;;;;;;;27.64;100.00;100116.94;4996470;28;19929;-73
2023/08/21 01:25:21;;;;;;;;;;;;;;;27.64;100.00;100114.22;4996298;28;20286;-73
2023/08/21 01:27:48;;;;;;;;;;;;;;;27.63;100.00;100109.84;5013467;28;19922;-73
2023/08/21 01:30:13;;;;;;;;;;;;;;;27.65;100.00;100110.44;5013849;28;19922;-72
2023/08/21 01:32:51;;;;;;;;;;;;;;;27.63;100.00;100117.97;4995847;28;19976;-73
2023/08/21 01:35:17;;;;;;;;;;;;;;;27.64;100.00;100108.78;5013546;28;19929;-73
2023/08/21 01:37:42;;;;;;;;;;;;;;;27.63;100.00;100117.97;5013328;28;20374;-73
2023/08/21 01:40:08;;;;;;;;;;;;;;;27.57;100.00;100118.94;5014788;28;20079;-72
2023/08/21 01:42:33;;;;;;;;;;;;;;;27.54;100.00;100124.84;5015450;28;19964;-73
2023/08/21 01:44:59;;;;;;;;;;;;;;;27.54;100.00;100120.25;4995595;28;20016;-72
2023/08/21 01:47:24;;;;;;;;;;;;;;;27.57;100.00;100118.94;4995223;28;19937;-72
2023/08/21 01:49:52;;;;;;;;;;;;;;;27.50;100.00;100118.25;5012509;28;19926;-72
2023/08/21 01:52:17;;;;;;;;;;;;;;;27.48;100.00;100121.19;5013113;28;20381;-73
2023/08/21 01:54:43;;;;;;;;;;;;;;;27.45;100.00;100116.22;4994873;28;19921;-73
2023/08/21 01:57:08;;;;;;;;;;;;;;;27.36;100.00;100122.28;4995171;28;19928;-72
2023/08/21 01:59:34;;;;;;;;;;;;;;;27.36;100.00;100116.84;4995174;28;19964;-74
2023/08/21 02:02:00;;;;;;;;;;;;;;;27.32;100.00;100126.53;4995300;28;19983;-72
2023/08/21 02:04:25;;;;;;;;;;;;;;;27.29;100.00;100117.81;5012855;28;19922;-73
2023/08/21 02:06:51;;;;;;;;;;;;;;;27.29;100.00;100117.81;5012534;28;19922;-72
2023/08/21 02:09:16;;;;;;;;;;;;;;;27.30;100.00;100113.22;4995275;28;20363;-73
2023/08/21 02:11:41;;;;;;;;;;;;;;;27.29;100.00;100116.97;5012192;28;19917;-73
2023/08/21 02:14:07;;;;;;;;;;;;;;;27.30;100.00;100121.34;4994989;28;20370;-73
2023/08/21 02:16:32;;;;;;;;;;;;;;;27.29;100.00;100112.38;4986795;28;20020;-74
2023/08/21 02:18:58;;;;;;;;;;;;;;;27.19;100.00;100120.31;4994931;28;20012;-73
2023/08/21 02:21:23;;;;;;;;;;;;;;;27.05;100.00;100116.19;5003394;28;19925;-74
2023/08/21 02:23:48;;;;;;;;;;;;;;;26.99;100.00;100119.00;5012330;28;19918;-73
2023/08/21 02:26:14;;;;;;;;;;;;;;;26.88;100.00;100117.94;5012250;28;19971;-74
2023/08/21 02:28:39;;;;;;;;;;;;;;;26.83;100.00;100115.91;4994883;28;19984;-73
2023/08/21 02:31:05;;;;;;;;;;;;;;;26.81;100.00;100115.31;5012660;28;19917;-74
2023/08/21 02:33:32;;;;;;;;;;;;;;;26.83;100.00;100120.50;4994365;28;19932;-73
2023/08/21 02:35:58;;;;;;;;;;;;;;;26.70;100.00;100120.72;4994781;28;19922;-73
2023/08/21 02:38:23;;;;;;;;;;;;;;;26.58;100.00;100119.88;5003015;28;19925;-73
2023/08/21 02:40:48;;;;;;;;;;;;;;;26.48;100.00;100129.41;5002363;28;20448;-73
2023/08/21 02:43:14;;;;;;;;;;;;;;;26.44;100.00;100120.13;4994900;28;19932;-74
2023/08/21 02:45:39;;;;;;;;;;;;;;;26.41;100.00;100120.56;4994369;28;19944;-74
2023/08/21 02:48:05;;;;;;;;;;;;;;;26.39;100.00;100122.69;5012325;28;20014;-73
2023/08/21 02:50:30;;;;;;;;;;;;;;;26.37;100.00;100124.81;5002421;28;20010;-72
2023/08/21 02:52:56;;;;;;;;;;;;;;;26.39;100.00;100128.09;4994618;28;19972;-72
2023/08/21 02:55:21;;;;;;;;;;;;;;;26.33;100.00;100129.00;5007955;28;19971;-73
2023/08/21 02:57:47;;;;;;;;;;;;;;;26.35;100.00;100126.91;5011936;28;19929;-72
2023/08/21 03:00:12;;;;;;;;;;;;;;;26.30;100.00;100121.38;4994696;28;20349;-73
2023/08/21 03:02:38;;;;;;;;;;;;;;;26.29;100.00;100125.13;5011925;28;19921;-74
2023/08/21 03:05:03;;;;;;;;;;;;;;;26.23;100.00;100120.66;5012032;28;19925;-73
2023/08/21 03:07:29;;;;;;;;;;;;;;;26.14;100.00;100123.88;5011526;28;19943;-73
2023/08/21 03:09:54;;;;;;;;;;;;;;;26.08;100.00;100122.94;5034585;23;20382;-90
2023/08/21 03:12:19;;;;;;;;;;;;;;;25.93;100.00;100126.03;5012143;28;19922;-91
2023/08/21 03:14:45;;;;;;;;;;;;;;;25.93;100.00;100126.03;5011831;28;19999;-90
2023/08/21 03:17:11;;;;;;;;;;;;;;;25.87;100.00;100128.81;5012118;28;19976;-90
2023/08/21 03:19:36;;;;;;;;;;;;;;;25.76;100.00;100121.47;5010764;28;19917;-90
2023/08/21 03:22:01;;;;;;;;;;;;;;;25.82;100.00;100120.56;5027720;28;19921;-90
2023/08/21 03:24:27;;;;;;;;;;;;;;;25.83;100.00;100123.06;5009423;28;20080;-89
2023/08/21 03:26:52;;;;;;;;;;;;;;;25.87;100.00;100118.00;5010698;28;19917;-90
2023/08/21 03:29:18;;;;;;;;;;;;;;;25.81;100.00;100113.50;5011749;28;19921;-89
2023/08/21 03:31:46;;;;;;;;;;;;;;;25.86;100.00;100122.59;5010110;28;19925;-90
2023/08/21 03:34:11;;;;;;;;;;;;;;;25.87;100.00;100123.41;5011933;28;19921;-90
2023/08/21 03:36:38;;;;;;;;;;;;;;;25.89;100.00;100121.31;5010354;28;19933;-89
2023/08/21 03:39:05;;;;;;;;;;;;;;;25.82;100.00;100128.69;5010107;28;19971;-89
2023/08/21 03:41:33;;;;;;;;;;;;;;;25.85;100.00;100126.38;5010129;28;20382;-89
2023/08/21 03:43:59;;;;;;;;;;;;;;;25.72;100.00;100125.69;5010270;28;19929;-89
2023/08/21 03:46:24;;;;;;;;;;;;;;;25.72;100.00;100131.09;5011971;28;19924;-89
2023/08/21 03:48:50;;;;;;;;;;;;;;;25.73;100.00;100121.94;5011682;28;19951;-90
2023/08/21 03:51:15;;;;;;;;;;;;;;;25.75;100.00;100127.94;5010342;28;19964;-90
2023/08/21 03:53:41;;;;;;;;;;;;;;;25.71;100.00;100124.06;5010392;28;19925;-89
2023/08/21 03:56:06;;;;;;;;;;;;;;;25.57;100.00;100128.78;5011814;28;20032;-90
2023/08/21 03:58:31;;;;;;;;;;;;;;;25.55;100.00;100137.09;5010984;28;19917;-90
2023/08/21 04:00:57;;;;;;;;;;;;;;;25.55;100.00;100136.28;5020138;28;20051;-90
2023/08/21 04:03:23;;;;;;;;;;;;;;;25.50;100.00;100139.66;5037196;28;20024;-90
2023/08/21 04:05:49;;;;;;;;;;;;;;;25.47;100.00;100136.56;5012351;28;19964;-91
2023/08/21 04:08:14;;;;;;;;;;;;;;;25.41;100.00;100135.59;5011373;28;19921;-90
2023/08/21 04:10:41;;;;;;;;;;;;;;;25.40;100.00;100139.34;5009562;28;20328;-90
2023/08/21 04:13:07;;;;;;;;;;;;;;;25.38;100.00;100140.63;5010495;28;19928;-90
2023/08/21 04:15:37;;;;;;;;;;;;;;;25.45;100.00;100141.38;5009889;28;19964;-89
2023/08/21 04:18:03;;;;;;;;;;;;;;;25.48;100.00;100146.34;5010231;28;19937;-88
2023/08/21 04:20:29;;;;;;;;;;;;;;;25.41;100.00;100143.69;5018093;28;19921;-89
2023/08/21 04:22:54;;;;;;;;;;;;;;;25.36;100.00;100143.56;5021644;28;20047;-90
2023/08/21 04:25:19;;;;;;;;;;;;;;;25.31;100.00;100151.50;5012137;28;19944;-90
2023/08/21 04:27:45;;;;;;;;;;;;;;;25.33;100.00;100154.78;5011604;28;19975;-90
2023/08/21 04:30:10;;;;;;;;;;;;;;;25.29;100.00;100156.28;5010228;28;19962;-92
2023/08/21 04:32:36;;;;;;;;;;;;;;;25.29;100.00;100149.03;4994563;28;19970;-90
2023/08/21 04:35:01;;;;;;;;;;;;;;;25.23;100.00;100154.50;5010125;28;19921;-89
2023/08/21 04:37:27;;;;;;;;;;;;;;;25.26;100.00;100159.47;5013296;28;19968;-89
2023/08/21 04:39:53;;;;;;;;;;;;;;;25.28;100.00;100160.03;5013199;28;19976;-89
2023/08/21 04:42:19;;;;;;;;;;;;;;;25.20;100.00;100165.75;5013490;28;20018;-88
2023/08/21 04:44:44;;;;;;;;;;;;;;;25.19;100.00;100158.69;5012914;28;20406;-88
2023/08/21 04:47:26;;;;;;;;;;;;;;;25.13;100.00;100159.59;5013313;28;19967;-89
2023/08/21 04:49:54;;;;;;;;;;;;;;;25.14;100.00;100161.25;5013219;28;19925;-89
2023/08/21 04:52:20;;;;;;;;;;;;;;;25.17;100.00;100163.50;5013582;28;19928;-88
2023/08/21 04:54:47;;;;;;;;;;;;;;;25.14;100.00;100166.66;5013308;28;19936;-89
2023/08/21 04:57:14;;;;;;;;;;;;;;;25.13;100.00;100165.00;5015467;28;19974;-88
2023/08/21 04:59:39;;;;;;;;;;;;;;;25.12;100.00;100168.72;5012547;28;19971;-76
2023/08/21 05:02:05;;;;;;;;;;;;;;;25.13;100.00;100170.38;5013854;28;19922;-76
2023/08/21 05:04:30;;;;;;;;;;;;;;;25.09;100.00;100174.59;5012290;28;19971;-75
2023/08/21 05:06:56;;;;;;;;;;;;;;;25.05;100.00;100178.75;5012522;28;19964;-75
2023/08/21 05:09:21;;;;;;;;;;;;;;;25.03;100.00;100180.88;5011895;28;19988;-78
2023/08/21 05:11:46;;;;;;;;;;;;;;;25.06;100.00;100183.94;5013369;28;19933;-79
2023/08/21 05:14:13;;;;;;;;;;;;;;;25.07;100.00;100187.47;5012208;28;19929;-79
2023/08/21 05:16:39;;;;;;;;;;;;;;;25.11;100.00;100188.69;5028541;28;19925;-79
2023/08/21 05:19:04;;;;;;;;;;;;;;;25.11;100.00;100185.97;5012552;28;20452;-79
2023/08/21 05:21:30;;;;;;;;;;;;;;;25.06;100.00;100183.13;5012141;28;19921;-78
2023/08/21 05:23:55;;;;;;;;;;;;;;;24.99;100.00;100193.16;5012310;28;20035;-81
2023/08/21 05:26:21;;;;;;;;;;;;;;;24.97;100.00;100192.56;5011751;28;19980;-80
2023/08/21 05:28:46;;;;;;;;;;;;;;;24.95;100.00;100200.03;5012872;28;19929;-81
2023/08/21 05:31:12;;;;;;;;;;;;;;;24.99;100.00;100202.06;5008560;28;20274;-75
2023/08/21 05:33:46;;;;;;;;;;;;;;;25.03;100.00;100202.47;5009372;28;19925;-76
2023/08/21 05:36:12;;;;;;;;;;;;;;;25.02;100.00;100203.53;5010047;28;19947;-76
2023/08/21 05:38:37;;;;;;;;;;;;;;;25.01;100.00;100197.28;5011735;28;19917;-75
2023/08/21 05:41:02;;;;;;;;;;;;;;;25.00;100.00;100203.72;5012169;28;19922;-74
2023/08/21 05:43:28;;;;;;;;;;;;;;;24.96;100.00;100201.72;5013116;28;19925;-74
2023/08/21 05:45:53;;;;;;;;;;;;;;;25.02;100.00;100211.63;5011716;28;20071;-75
2023/08/21 05:48:20;;;;;;;;;;;;;;;25.10;100.00;100205.91;5010794;28;19925;-75
2023/08/21 05:50:50;;;;;;;;;;;;;;;25.12;100.00;100214.66;5011193;28;19937;-75
2023/08/21 05:53:16;;;;;;;;;;;;;;;25.23;100.00;100209.34;5011997;28;19922;-74
2023/08/21 05:55:41;;;;;;;;;;;;;;;25.31;100.00;100205.53;5011738;28;19921;-75
2023/08/21 05:58:07;;;;;;;;;;;;;;;25.38;100.00;100211.72;5011950;28;20424;-75
2023/08/21 06:00:33;;;;;;;;;;;;;;;25.46;100.00;100214.09;5010878;28;19921;-75
2023/08/21 06:03:00;;;;;;;;;;;;;;;25.49;100.00;100213.66;5008548;28;19922;-76
2023/08/21 06:05:41;;;;;;;;;;;;;;;25.50;100.00;100215.31;5011500;28;20030;-76
2023/08/21 06:08:08;;;;;;;;;;;;;;;25.39;100.00;100213.34;5010601;28;19925;-75
2023/08/21 06:10:34;;;;;;;;;;;;;;;25.40;100.00;100217.69;5011173;28;20397;-76
2023/08/21 06:12:59;;;;;;;;;;;;;;;25.45;100.00;100217.84;5011893;28;19929;-75
2023/08/21 06:15:24;;;;;;;;;;;;;;;25.54;100.00;100216.53;5012476;28;19922;-76
2023/08/21 06:17:50;;;;;;;;;;;;;;;25.59;100.00;100216.69;5012550;28;20015;-76
2023/08/21 06:20:15;;;;;;;;;;;;;;;25.60;100.00;100220.22;5011605;28;19921;-76
2023/08/21 06:22:40;;;;;;;;;;;;;;;25.57;100.00;100221.50;5010925;28;20393;-75
2023/08/21 06:25:07;;;;;;;;;;;;;;;25.61;100.00;100222.72;5011554;28;19956;-74
2023/08/21 06:27:33;;;;;;;;;;;;;;;25.68;100.00;100222.66;5011117;28;19989;-75
2023/08/21 06:29:58;;;;;;;;;;;;;;;25.75;100.00;100217.16;5010764;28;19929;-74
2023/08/21 06:32:24;;;;;;;;;;;;;;;25.84;100.00;100222.03;5011889;28;19967;-75
2023/08/21 06:34:50;;;;;;;;;;;;;;;25.92;100.00;100229.81;5027065;28;19925;-76
2023/08/21 06:37:16;;;;;;;;;;;;;;;25.99;100.00;100225.16;5011295;28;19932;-75
2023/08/21 06:39:42;;;;;;;;;;;;;;;26.01;100.00;100227.66;5011823;28;19924;-75
2023/08/21 06:42:07;;;;;;;;;;;;;;;25.97;100.00;100226.47;5012385;28;20377;-75
2023/08/21 06:44:40;;;;;;;;;;;;;;;25.98;100.00;100228.09;5026709;28;19921;-74
2023/08/21 06:47:05;;;;;;;;;;;;;;;25.99;100.00;100229.75;5012203;28;20441;-76
2023/08/21 06:49:31;;;;;;;;;;;;;;;26.01;100.00;100227.66;5010682;28;19928;-74
2023/08/21 06:51:58;;;;;;;;;;;;;;;26.05;100.00;100228.84;5012343;28;19968;-76
2023/08/21 06:54:23;;;;;;;;;;;;;;;26.08;100.00;100236.53;5011138;28;19944;-76
2023/08/21 06:56:49;;;;;;;;;;;;;;;26.10;100.00;100237.09;5011913;28;20381;-74
2023/08/21 06:59:15;;;;;;;;;;;;;;;26.15;100.00;100239.16;5011574;28;19917;-76
2023/08/21 07:01:40;;;;;;;;;;;;;;;26.22;100.00;100229.03;5011255;28;19922;-76
2023/08/21 07:04:06;;;;;;;;;;;;;;;26.29;100.00;100227.94;5012432;28;20023;-76
2023/08/21 07:06:31;;;;;;;;;;;;;;;26.37;100.00;100227.63;5010650;28;20328;-77
2023/08/21 07:08:56;;;;;;;;;;;;;;;26.44;100.00;100228.38;5011521;28;19930;-75
2023/08/21 07:11:22;;;;;;;;;;;;;;;26.53;100.00;100230.75;5012117;28;20344;-76
2023/08/21 07:13:48;;;;;;;;;;;;;;;26.63;100.00;100225.59;5010103;28;19944;-76
2023/08/21 07:16:13;;;;;;;;;;;;;;;26.75;100.00;100221.03;5011506;28;19921;-76
2023/08/21 07:18:38;;;;;;;;;;;;;;;26.87;100.00;100224.59;5011383;28;20377;-76
2023/08/21 07:21:04;;;;;;;;;;;;;;;26.96;100.00;100228.66;5011521;28;19959;-75
2023/08/21 07:23:30;;;;;;;;;;;;;;;27.04;100.00;100228.28;5010444;28;19921;-76
2023/08/21 07:25:57;;;;;;;;;;;;;;;27.14;100.00;100223.13;5011265;28;19921;-75
2023/08/21 07:28:22;;;;;;;;;;;;;;;27.22;100.00;100220.06;5009346;28;19921;-77
2023/08/21 07:30:47;;;;;;;;;;;;;;;27.32;100.00;100221.38;5010836;28;20659;-77
2023/08/21 07:33:13;;;;;;;;;;;;;;;27.41;100.00;100217.22;5011437;28;20294;-77
2023/08/21 07:35:39;;;;;;;;;;;;;;;27.50;100.00;100215.84;5009983;28;20297;-77
2023/08/21 07:38:04;;;;;;;;;;;;;;;27.55;100.00;100219.50;5011216;28;19928;-77
2023/08/21 07:40:29;;;;;;;;;;;;;;;27.66;100.00;100220.56;5009719;28;19927;-77
2023/08/21 07:42:55;;;;;;;;;;;;;;;27.72;100.00;100230.44;5011241;28;19955;-77
2023/08/21 07:45:20;;;;;;;;;;;;;;;27.75;100.00;100224.53;5006401;28;19969;-78
2023/08/21 07:47:46;;;;;;;;;;;;;;;27.84;100.00;100223.13;5010145;28;20019;-80
2023/08/21 07:50:11;;;;;;;;;;;;;;;27.92;100.00;100225.44;5010994;28;20007;-78
2023/08/21 07:52:36;;;;;;;;;;;;;;;27.98;100.00;100229.91;5010544;28;19922;-79
2023/08/21 07:55:02;;;;;;;;;;;;;;;28.04;100.00;100228.94;5011387;28;19922;-80
2023/08/21 07:57:29;;;;;;;;;;;;;;;28.14;100.00;100224.84;5011457;28;19922;-80
2023/08/21 07:59:54;;;;;;;;;;;;;;;28.21;100.00;100222.81;5011023;28;20009;-80
2023/08/21 08:02:19;;;;;;;;;;;;;;;28.32;100.00;100224.66;5010952;28;19961;-78
2023/08/21 08:04:45;;;;;;;;;;;;;;;28.39;100.00;100230.75;5009560;28;19922;-78
2023/08/21 08:07:10;;;;;;;;;;;;;;;28.47;100.00;100222.22;5008556;28;20402;-78
2023/08/21 08:09:36;;;;;;;;;;;;;;;28.54;100.00;100222.88;5010288;28;19929;-77
2023/08/21 08:12:01;;;;;;;;;;;;;;;28.61;100.00;100229.00;5014048;28;19921;-77
2023/08/21 08:14:26;;;;;;;;;;;;;;;28.68;100.00;100224.25;5173506;23;19925;-77
2023/08/21 08:16:52;;;;;;;;;;;;;;;28.75;100.00;100224.09;5033658;28;20370;-76
2023/08/21 08:19:17;;;;;;;;;;;;;;;28.81;100.00;100223.94;5032591;28;20408;-77
2023/08/21 08:21:43;;;;;;;;;;;;;;;28.84;100.00;100218.03;5033578;28;20030;-77
2023/08/21 08:24:08;;;;;;;;;;;;;;;28.90;100.00;100219.75;5006457;28;20282;-77
2023/08/21 08:26:34;;;;;;;;;;;;;;;28.96;100.00;100214.41;5031619;28;19929;-78
2023/08/21 08:28:59;;;;;;;;;;;;;;;29.01;100.00;100217.19;5015908;28;20305;-78
2023/08/21 08:31:27;;;;;;;;;;;;;;;29.07;100.00;100216.22;5034546;28;19928;-78
2023/08/21 08:33:53;;;;;;;;;;;;;;;29.11;100.00;100217.34;5029426;28;19925;-77
2023/08/21 08:36:18;;;;;;;;;;;;;;;29.16;100.00;100220.97;5014922;28;20032;-79
2023/08/21 08:38:43;;;;;;;;;;;;;;;29.20;100.00;100216.69;5029776;28;19917;-78
2023/08/21 08:41:17;;;;;;;;;;;;;;;29.26;100.00;100214.88;5026239;28;19925;-77
2023/08/21 08:43:42;;;;;;;;;;;;;;;29.31;100.00;100225.81;5028018;28;19918;-74
2023/08/21 08:46:09;;;;;;;;;;;;;;;29.39;100.00;100214.56;5034222;28;19929;-75
2023/08/21 08:48:35;;;;;;;;;;;;;;;29.45;100.00;100218.19;5025811;28;19932;-83
2023/08/21 08:51:01;;;;;;;;;;;;;;;29.51;100.00;100207.09;5027615;28;19921;-85
2023/08/21 08:53:27;;;;;;;;;;;;;;;29.56;100.00;100207.19;5015763;28;20397;-81
2023/08/21 08:55:52;;;;;;;;;;;;;;;29.63;100.00;100209.75;5030833;28;19925;-81
2023/08/21 08:58:17;;;;;;;;;;;;;;;29.69;100.00;100204.09;5035641;28;19974;-83
2023/08/21 09:00:43;;;;;;;;;;;;;;;29.77;100.00;100207.44;5013648;28;19987;-84
2023/08/21 09:03:10;;;;;;;;;;;;;;;29.82;100.00;100202.06;5028554;28;19925;-84
2023/08/21 09:05:35;;;;;;;;;;;;;;;29.86;100.00;100208.66;5026622;28;19921;-86
2023/08/21 09:08:13;;;;;;;;;;;;;;;29.91;100.00;100200.59;5025505;28;19944;-82
2023/08/21 09:10:40;;;;;;;;;;;;;;;29.95;100.00;100196.28;5028749;28;20345;-84
2023/08/21 09:13:25;;;;;;;;;;;;;;;29.99;100.00;100198.22;5032852;28;19921;-87
2023/08/21 09:15:53;;;;;;;;;;;;;;;30.05;100.00;100191.78;5031872;28;19925;-85
2023/08/21 09:18:19;;;;;;;;;;;;;;;30.10;100.00;100196.47;5032486;28;20277;-87
2023/08/21 09:20:44;;;;;;;;;;;;;;;30.21;100.00;100184.63;5026292;28;19928;-85
2023/08/21 09:23:16;;;;;;;;;;;;;;;30.29;100.00;100181.41;5031995;28;19921;-87
2023/08/21 09:25:44;;;;;;;;;;;;;;;30.42;100.00;100180.19;5014215;28;19925;-86
2023/08/21 09:28:09;;;;;;;;;;;;;;;30.50;100.00;100177.88;5034513;28;19928;-85
2023/08/21 09:30:44;;;;;;;;;;;;;;;30.61;100.00;100183.41;5033146;28;20016;-85
2023/08/21 09:33:09;;;;;;;;;;;;;;;30.67;100.00;100176.91;5032500;28;19929;-84
2023/08/21 09:35:35;;;;;;;;;;;;;;;30.79;97.78;100174.84;5033601;28;20309;-88
2023/08/21 09:38:00;;;;;;;;;;;;;;;30.91;94.40;100168.13;5033042;28;20027;-88
2023/08/21 09:40:25;;;;;;;;;;;;;;;30.98;93.70;100167.91;5032199;28;19928;-88
2023/08/21 09:42:51;;;;;;;;;;;;;;;31.04;92.62;100166.91;5033122;28;19975;-86
2023/08/21 09:45:19;;;;;;;;;;;;;;;31.10;91.81;100163.13;5033023;28;19921;-87
2023/08/21 09:47:44;;;;;;;;;;;;;;;31.12;92.46;100158.22;5032483;28;20293;-83
2023/08/21 09:50:10;;;;;;;;;;;;;;;31.24;89.94;100150.66;5032907;28;19921;-85
2023/08/21 09:52:35;;;;;;;;;;;;;;;31.40;86.69;100153.47;5028562;28;19936;-89
2023/08/21 09:55:03;;;;;;;;;;;;;;;31.42;85.46;100146.66;5033118;28;20000;-91
2023/08/21 09:57:28;;;;;;;;;;;;;;;31.45;85.79;100150.78;5033422;28;19948;-82
2023/08/21 09:59:54;;;;;;;;;;;;;;;31.45;85.09;100148.03;5029227;28;19921;-89
2023/08/21 10:02:20;;;;;;;;;;;;;;;31.45;85.64;100145.31;5033219;28;19921;-87
2023/08/21 10:04:48;;;;;;;;;;;;;;;31.45;86.07;100139.88;5031586;28;19921;-87
2023/08/21 10:07:16;;;;;;;;;;;;;;;31.45;82.55;100140.69;5032584;28;19931;-87
2023/08/21 10:09:41;;;;;;;;;;;;;;;31.48;74.13;100145.59;5030263;28;19929;-87
2023/08/21 10:12:09;;;;;;;;;;;;;;;31.51;70.46;100138.81;5034538;28;19940;-86
2023/08/21 10:14:35;;;;;;;;;;;;;;;31.51;70.83;100134.16;5031105;28;19921;-86
2023/08/21 10:17:01;;;;;;;;;;;;;;;31.57;70.22;100143.19;5031917;28;19921;-87
2023/08/21 10:19:32;;;;;;;;;;;;;;;31.58;72.32;100129.28;5031896;28;19944;-87
2023/08/21 10:21:59;;;;;;;;;;;;;;;31.59;73.97;100130.13;5024206;28;19928;-86
2023/08/21 10:24:35;;;;;;;;;;;;;;;31.61;74.61;100128.78;5031236;28;19963;-86
2023/08/21 10:27:00;;;;;;;;;;;;;;;31.63;74.50;100120.34;5028970;28;19986;-86
2023/08/21 10:29:26;;;;;;;;;;;;;;;31.66;74.56;100117.06;5032370;28;20329;-86
2023/08/21 10:32:02;;;;;;;;;;;;;;;31.67;73.21;100119.53;5013761;28;19929;-86
2023/08/21 10:34:35;;;;;;;;;;;;;;;31.70;71.53;100115.41;5030224;28;19975;-85
2023/08/21 10:37:09;;;;;;;;;;;;;;;31.79;69.53;100111.09;5031768;28;19940;-86
2023/08/21 10:39:37;;;;;;;;;;;;;;;31.83;62.40;100114.94;5028525;28;19955;-84
2023/08/21 10:42:08;;;;;;;;;;;;;;;31.86;63.44;100114.41;5031481;28;20285;-85
2023/08/21 10:44:47;;;;;;;;;;;;;;;31.88;64.04;100106.75;5031191;28;19925;-85
2023/08/21 10:47:16;;;;;;;;;;;;;;;31.94;63.75;100099.38;5030862;28;19992;-85
2023/08/21 10:49:43;;;;;;;;;;;;;;;32.02;49.67;100102.41;5031243;28;19929;-87
2023/08/21 10:52:11;;;;;;;;;;;;;;;32.04;55.27;100100.25;5031559;28;19952;-85
2023/08/21 10:54:46;;;;;;;;;;;;;;;32.08;61.87;100093.16;5030548;28;20349;-87
2023/08/21 10:57:12;;;;;;;;;;;;;;;32.10;60.72;100096.41;5031870;28;19968;-87
2023/08/21 10:59:37;;;;;;;;;;;;;;;32.17;59.50;100098.09;5031296;28;20018;-86
2023/08/21 11:02:03;;;;;;;;;;;;;;;32.21;60.03;100099.22;5031636;28;19921;-87
2023/08/21 11:04:28;;;;;;;;;;;;;;;32.28;60.52;100103.28;5031814;28;19917;-86
2023/08/21 11:06:53;;;;;;;;;;;;;;;32.28;62.35;100089.63;5031496;28;19929;-86
2023/08/21 11:09:19;;;;;;;;;;;;;;;32.32;61.97;100079.00;5031122;28;19921;-86
2023/08/21 11:11:44;;;;;;;;;;;;;;;32.34;62.82;100079.56;5031238;28;20424;-86
2023/08/21 11:14:09;;;;;;;;;;;;;;;32.38;61.25;100084.19;5012989;28;19921;-85
2023/08/21 11:16:35;;;;;;;;;;;;;;;32.43;61.70;100086.09;5030796;28;19943;-86
2023/08/21 11:19:05;;;;;;;;;;;;;;;32.49;61.72;100080.38;5031230;28;20243;-86
2023/08/21 11:21:30;;;;;;;;;;;;;;;32.50;62.32;100081.19;5017639;28;20373;-87
2023/08/21 11:23:56;;;;;;;;;;;;;;;32.50;63.26;100081.19;5031020;28;19969;-86
2023/08/21 11:26:21;;;;;;;;;;;;;;;32.56;59.04;100080.09;5030935;28;19925;-86
2023/08/21 11:28:47;;;;;;;;;;;;;;;32.57;59.71;100079.00;5032457;28;20042;-85
2023/08/21 11:31:12;;;;;;;;;;;;;;;32.58;60.16;100077.06;5035252;28;19917;-85
2023/08/21 11:33:39;;;;;;;;;;;;;;;32.65;60.15;100072.97;5015557;28;19928;-86
2023/08/21 11:36:04;;;;;;;;;;;;;;;32.75;58.66;100075.69;5031438;28;20035;-86
2023/08/21 11:38:29;;;;;;;;;;;;;;;32.86;58.10;100079.25;5030076;28;19996;-85
2023/08/21 11:40:57;;;;;;;;;;;;;;;32.91;56.46;100066.41;5030988;28;19952;-87
2023/08/21 11:43:33;;;;;;;;;;;;;;;32.95;57.33;100066.66;5026867;28;19929;-86
2023/08/21 11:46:03;;;;;;;;;;;;;;;32.97;57.72;100060.91;5010498;28;20374;-86
2023/08/21 11:48:29;;;;;;;;;;;;;;;33.03;56.46;100057.88;4998857;28;20274;-87
2023/08/21 11:50:54;;;;;;;;;;;;;;;33.15;55.88;100057.56;5033606;28;19935;-87
2023/08/21 11:53:34;;;;;;;;;;;;;;;33.25;55.69;100055.66;5035327;28;19921;-85
2023/08/21 11:55:59;;;;;;;;;;;;;;;33.41;54.79;100048.19;5032439;28;19928;-86
2023/08/21 11:58:28;;;;;;;;;;;;;;;33.51;54.62;100052.81;5035238;28;19921;-86
2023/08/21 12:00:53;;;;;;;;;;;;;;;33.59;52.38;100042.06;5030760;28;20385;-85
2023/08/21 12:03:19;;;;;;;;;;;;;;;33.69;52.89;100049.41;5034662;28;19967;-85
2023/08/21 12:05:44;;;;;;;;;;;;;;;33.79;53.66;100043.09;5034070;28;19921;-86
2023/08/21 12:08:09;;;;;;;;;;;;;;;33.96;52.59;100032.56;5016955;28;20389;-84
2023/08/21 12:10:35;;;;;;;;;;;;;;;34.13;52.39;100039.28;5034331;28;19944;-85
2023/08/21 12:13:00;;;;;;;;;;;;;;;34.32;50.40;100020.25;5034387;28;19921;-85
2023/08/21 12:15:25;;;;;;;;;;;;;;;34.52;49.34;100025.50;5034158;28;19921;-85
2023/08/21 12:17:51;;;;;;;;;;;;;;;34.74;47.61;100027.00;5034130;28;20320;-84
2023/08/21 12:20:16;;;;;;;;;;;;;;;34.91;48.53;100016.38;5034332;28;19921;-85
2023/08/21 12:22:44;;;;;;;;;;;;;;;35.09;46.43;100023.03;5031698;28;19928;-85
2023/08/21 12:25:11;;;;;;;;;;;;;;;35.19;46.22;100014.66;5032590;28;19921;-85